createdAt,value
2023-02-27T05:39:43.135Z,100532.97
2023-02-27T05:42:50.576Z,100532.97
2023-02-27T05:45:58.207Z,100543.59
2023-02-27T05:49:03.150Z,100535.97
2023-02-27T05:52:07.441Z,100535.63
2023-02-27T05:55:23.651Z,100539.41
2023-02-27T05:58:28.876Z,100539.69
2023-02-27T06:01:31.225Z,100545.69
2023-02-27T06:04:33.663Z,100557.25
2023-02-27T06:07:36.376Z,100563.66
2023-02-27T06:10:39.148Z,100568.00
2023-02-27T06:13:42.275Z,100580.53
2023-02-27T06:16:45.100Z,100584.34
2023-02-27T06:19:47.784Z,100595.44
2023-02-27T06:22:50.334Z,100598.31
2023-02-27T06:25:53.301Z,100603.97
2023-02-27T06:28:56.151Z,100611.00
2023-02-27T06:32:00.029Z,100616.25
2023-02-27T06:35:02.910Z,100643.09
2023-02-27T06:38:05.633Z,100643.34
2023-02-27T06:41:08.246Z,100648.38
2023-02-27T06:44:10.825Z,100656.16
2023-02-27T06:47:13.468Z,100653.28
2023-02-27T06:50:16.057Z,100663.81
2023-02-27T06:53:18.697Z,100667.69
2023-02-27T06:56:21.270Z,100664.75
2023-02-27T06:59:24.068Z,100670.53
2023-02-27T07:02:27.131Z,100671.75
2023-02-27T07:05:29.729Z,100675.00
2023-02-27T07:08:32.734Z,100683.50
2023-02-27T07:11:37.527Z,100673.50
2023-02-27T07:14:40.416Z,100675.16
2023-02-27T07:17:43.275Z,100683.56
2023-02-27T07:20:49.949Z,100680.87
2023-02-27T07:23:52.632Z,100684.50
2023-02-27T07:26:55.196Z,100681.59
2023-02-27T07:29:57.728Z,100688.41
2023-02-27T07:33:00.418Z,100691.19
2023-02-27T07:36:03.056Z,100694.00
2023-02-27T07:39:06.274Z,100687.22
2023-02-27T07:42:08.960Z,100696.41
2023-02-27T07:45:15.123Z,100696.12
2023-02-27T07:48:18.920Z,100698.41
2023-02-27T07:51:21.786Z,100701.56
2023-02-27T07:54:24.520Z,100707.78
2023-02-27T07:57:27.360Z,100704.69
2023-02-27T08:00:29.930Z,100713.97
2023-02-27T08:03:32.744Z,100715.66
2023-02-27T08:06:35.423Z,100718.84
2023-02-27T08:09:38.017Z,100718.66
2023-02-27T08:12:58.916Z,100718.00
2023-02-27T08:16:05.410Z,100724.16
2023-02-27T08:22:27.192Z,100731.72
2023-02-27T08:25:34.591Z,100740.25
2023-02-27T08:31:55.222Z,100748.47
2023-02-27T08:34:59.884Z,100759.28
2023-02-27T08:41:21.306Z,100774.69
2023-02-27T08:44:24.948Z,100776.44
2023-02-27T08:47:28.372Z,100781.12
2023-02-27T08:50:31.140Z,100788.12
2023-02-27T08:53:33.968Z,100778.06
2023-02-27T08:56:38.069Z,100777.66
2023-02-27T08:59:43.372Z,100786.63
2023-02-27T09:02:46.486Z,100789.81
2023-02-27T09:05:49.810Z,100788.84
2023-02-27T09:08:52.575Z,100793.78
2023-02-27T09:11:55.215Z,100793.91
2023-02-27T09:14:58.187Z,100800.56
2023-02-27T09:18:03.512Z,100794.13
2023-02-27T09:21:08.847Z,100796.56
2023-02-27T09:24:19.850Z,100802.75
2023-02-27T09:27:24.081Z,100805.38
2023-02-27T09:30:26.695Z,100812.09
2023-02-27T09:33:33.323Z,100810.47
2023-02-27T09:36:37.505Z,100808.72
2023-02-27T09:39:40.512Z,100802.25
2023-02-27T09:42:45.745Z,100815.31
2023-02-27T09:45:50.292Z,100810.28
2023-02-27T09:48:54.597Z,100811.56
2023-02-27T09:51:57.162Z,100821.25
2023-02-27T09:54:59.841Z,100817.22
2023-02-27T09:58:37.063Z,100816.47
2023-02-27T10:02:16.060Z,100820.00
2023-02-27T10:05:32.122Z,100825.31
2023-02-27T10:08:46.740Z,100831.38
2023-02-27T10:12:28.096Z,100828.78
2023-02-27T10:15:35.360Z,100833.00
2023-02-27T10:18:47.414Z,100823.03
2023-02-27T10:21:51.042Z,100824.81
2023-02-27T10:25:02.897Z,100821.84
2023-02-27T10:28:13.361Z,100821.22
2023-02-27T10:31:21.253Z,100820.50
2023-02-27T10:34:23.928Z,100814.59
2023-02-27T10:37:26.584Z,100821.72
2023-02-27T10:40:29.747Z,100825.81
2023-02-27T10:43:32.303Z,100822.19
2023-02-27T10:46:35.715Z,100819.03
2023-02-27T10:49:38.397Z,100817.41
2023-02-27T10:52:53.830Z,100815.97
2023-02-27T10:56:06.524Z,100818.47
2023-02-27T10:59:18.707Z,100819.47
2023-02-27T11:02:39.231Z,100816.06
2023-02-27T11:05:41.802Z,100825.22
2023-02-27T11:08:44.317Z,100821.53
2023-02-27T11:11:47.000Z,100818.16
2023-02-27T11:15:15.473Z,100813.28
2023-02-27T11:18:29.520Z,100819.50
2023-02-27T11:21:32.492Z,100823.16
2023-02-27T11:24:35.189Z,100826.91
2023-02-27T11:27:37.723Z,100827.66
2023-02-27T11:30:40.479Z,100824.22
2023-02-27T11:33:52.051Z,100825.78
2023-02-27T11:37:34.215Z,100820.56
2023-02-27T11:40:54.943Z,100820.16
2023-02-27T11:43:58.328Z,100825.09
2023-02-27T11:47:14.925Z,100823.06
2023-02-27T11:50:37.955Z,100821.00
2023-02-27T11:53:40.421Z,100820.41
2023-02-27T11:56:58.725Z,100818.41
2023-02-27T12:00:20.064Z,100816.13
2023-02-27T12:03:50.727Z,100818.12
2023-02-27T12:07:04.526Z,100818.69
2023-02-27T12:10:19.729Z,100809.97
2023-02-27T12:13:27.495Z,100810.22
2023-02-27T12:16:40.667Z,100812.00
2023-02-27T12:20:10.656Z,100823.06
2023-02-27T12:23:44.564Z,100824.81
2023-02-27T12:26:50.181Z,100822.59
2023-02-27T12:29:55.602Z,100831.94
2023-02-27T12:33:11.060Z,100838.00
2023-02-27T12:36:14.016Z,100843.28
2023-02-27T12:39:21.320Z,100833.91
2023-02-27T12:42:42.667Z,100837.72
2023-02-27T12:46:08.745Z,100844.53
2023-02-27T12:49:17.143Z,100839.44
2023-02-27T12:52:22.772Z,100842.75
2023-02-27T12:55:38.191Z,100841.75
2023-02-27T12:59:03.457Z,100840.78
2023-02-27T13:02:33.243Z,100846.91
2023-02-27T13:06:13.249Z,100836.69
2023-02-27T13:09:28.886Z,100841.81
2023-02-27T13:12:36.446Z,100849.47
2023-02-27T13:16:09.486Z,100848.59
2023-02-27T13:19:23.826Z,100850.44
2023-02-27T13:22:29.457Z,100853.94
2023-02-27T13:25:32.435Z,100854.03
2023-02-27T13:28:35.296Z,100858.84
2023-02-27T13:31:50.452Z,100857.25
2023-02-27T13:35:36.379Z,100854.69
2023-02-27T13:38:48.439Z,100854.69
2023-02-27T13:41:51.041Z,100853.94
2023-02-27T13:44:54.526Z,100860.66
2023-02-27T13:47:57.147Z,100856.34
2023-02-27T13:50:59.849Z,100869.12
2023-02-27T13:54:09.601Z,100867.34
2023-02-27T13:57:19.231Z,100865.09
2023-02-27T14:00:23.251Z,100859.94
2023-02-27T14:03:27.630Z,100862.16
2023-02-27T14:06:30.151Z,100862.41
2023-02-27T14:09:42.909Z,100850.53
2023-02-27T14:12:46.738Z,100859.16
2023-02-27T14:16:02.093Z,100861.69
2023-02-27T14:19:19.760Z,100857.09
2023-02-27T14:22:33.771Z,100857.34
2023-02-27T14:25:46.952Z,100848.66
2023-02-27T14:28:55.965Z,100859.84
2023-02-27T14:32:07.157Z,100862.31
2023-02-27T14:35:11.455Z,100857.25
2023-02-27T14:38:15.653Z,100862.56
2023-02-27T14:41:31.037Z,100860.91
2023-02-27T14:44:46.504Z,100870.38
2023-02-27T14:47:49.318Z,100871.97
2023-02-27T14:50:53.858Z,100870.25
2023-02-27T14:54:01.303Z,100882.09
2023-02-27T14:57:05.872Z,100877.47
2023-02-27T15:00:28.584Z,100869.75
2023-02-27T15:03:53.988Z,100870.47
2023-02-27T15:06:56.707Z,100876.66
2023-02-27T15:10:04.105Z,100881.88
2023-02-27T15:13:07.181Z,100886.19
2023-02-27T15:16:23.597Z,100904.31
2023-02-27T15:19:27.845Z,100910.28
2023-02-27T15:22:39.415Z,100917.19
2023-02-27T15:25:42.368Z,100918.75
2023-02-27T15:28:44.997Z,100912.91
2023-02-27T15:31:47.685Z,100922.19
2023-02-27T15:34:50.299Z,100924.00
2023-02-27T15:37:57.479Z,100929.78
2023-02-27T15:41:00.680Z,100932.28
2023-02-27T15:44:03.396Z,100936.78
2023-02-27T15:47:06.339Z,100938.44
2023-02-27T15:50:08.740Z,100952.37
2023-02-27T15:53:17.226Z,100957.47
2023-02-27T15:56:19.948Z,100959.16
2023-02-27T15:59:22.631Z,100964.97
2023-02-27T16:02:30.258Z,100958.75
